Edwards Air Force Base
KEDW : now visible

Airfield :











YOU CAN JOIN US ON...

 
LOGIN :

Register | Disclaimer

   EN    FR    IT 

 









Legend :    VFR   Marginal VFR   IFR   Intensive IFR   Very Intensive IFR
Visi :
Ceiling :
>= 8 km
>= 3000ft
5 to 8 km
1000 to 3000 ft
1500m to 5 km
500 to 1000 ft
800 to 1500m
200 to 500 ft
< 800m
< 200 ft
Symbols :   Thunderstorms  Fog  Heavy snow  Heavy precipitations  Wind > 20 kt






- Airport Elevation : 2312 ft


KEDW - Edwards Air Force Base

CURRENT METAR :
  • 060158Z AUTO 25022KT 10SM CLR 12/06 A2975 RMK AO2 PK WND 25026/54 SLP069 T01150058

EXPIRED METARs :
  • 060058Z AUTO 24020KT 10SM CLR 12/06 A2976 RMK AO2 PK WND 23029/2358 SLP073 T01200058
  • 052358Z AUTO 24021G28KT 10SM FEW070 13/06 A2978 RMK AO2 PK WND 24033/12 SLP080 T01320061 10160 20132 55001

TAF COR TAF KEDW
Valid from the 05 at 20:00 until the 06 at 22:00 UTC


052000Z 0520/0622 24015G25KT 9999 SCT020 BKN050 610804 510009 QNH2981INS
BECMG 0521/0522 23025G35KT 9999 VCSH SCT030 BKN050 BKN250 610804 530009 QNH2977INS
BECMG 0600/0601 23020G30KT 9999 VCSH SCT030 BKN050 BKN250 610804 530009 QNH2977INS
BECMG 0601/0602 22015G25KT 9999 VCSH SCT030 BKN050 BKN250 610804 510009 QNH2973INS
BECMG 0611/0612 22015G25KT 8000 -SHRA BKN020 OVC050 610604 510009 QNH2975INS TX15/0522Z TN08/0608Z LAST NO AMDS AFT 0523 NEXT 0613



MET'MAP, your aeronautical weather chart ! - Copyright ORBIFLY December 2007 - Disclaimer

ORBIFLY MET'MAP TEAM :

Programming & Development : Alexandra Zaïnal
Concept & original design : Baudouin d'Aumeries
Assistance for programming : Marc-Olivier Méhu
Technical & hardware support : Manuel Goepfert

Contact : metmap@orbifly.com




SOURCES & CREDITS :

   NOAA       Earth
Advisory